sensor_id;sensor_type;location;lat;lon;timestamp;temperature;humidity
38514;DHT22;24282;48.400;10.808;2022-10-01T00:00:59;8.00;85.40
38514;DHT22;24282;48.400;10.808;2022-10-01T00:03:26;8.00;85.30
38514;DHT22;24282;48.400;10.808;2022-10-01T00:06:04;8.00;85.40
38514;DHT22;24282;48.400;10.808;2022-10-01T00:08:31;7.90;85.50
38514;DHT22;24282;48.400;10.808;2022-10-01T00:10:57;7.90;85.50
38514;DHT22;24282;48.400;10.808;2022-10-01T00:13:27;7.90;85.40
38514;DHT22;24282;48.400;10.808;2022-10-01T00:15:53;7.90;85.40
38514;DHT22;24282;48.400;10.808;2022-10-01T00:18:19;7.90;85.60
38514;DHT22;24282;48.400;10.808;2022-10-01T00:20:45;7.80;85.60
38514;DHT22;24282;48.400;10.808;2022-10-01T00:23:12;7.80;85.60
38514;DHT22;24282;48.400;10.808;2022-10-01T00:25:39;7.70;85.70
38514;DHT22;24282;48.400;10.808;2022-10-01T00:28:06;7.70;85.70
38514;DHT22;24282;48.400;10.808;2022-10-01T00:30:32;7.70;85.60
38514;DHT22;24282;48.400;10.808;2022-10-01T00:32:58;7.70;85.70
38514;DHT22;24282;48.400;10.808;2022-10-01T00:35:23;7.70;85.70
38514;DHT22;24282;48.400;10.808;2022-10-01T00:37:50;7.70;85.70
38514;DHT22;24282;48.400;10.808;2022-10-01T00:40:19;7.70;85.70
38514;DHT22;24282;48.400;10.808;2022-10-01T00:42:45;7.70;85.60
38514;DHT22;24282;48.400;10.808;2022-10-01T00:45:13;7.60;85.50
38514;DHT22;24282;48.400;10.808;2022-10-01T00:47:50;7.60;85.40
38514;DHT22;24282;48.400;10.808;2022-10-01T00:50:29;7.50;85.60
38514;DHT22;24282;48.400;10.808;2022-10-01T00:53:00;7.50;85.70
38514;DHT22;24282;48.400;10.808;2022-10-01T00:55:34;7.50;85.90
38514;DHT22;24282;48.400;10.808;2022-10-01T00:58:02;7.50;86.00
38514;DHT22;24282;48.400;10.808;2022-10-01T01:00:28;7.50;86.00
38514;DHT22;24282;48.400;10.808;2022-10-01T01:02:54;7.50;85.70
38514;DHT22;24282;48.400;10.808;2022-10-01T01:05:21;7.50;85.70
38514;DHT22;24282;48.400;10.808;2022-10-01T01:07:49;7.50;85.70
38514;DHT22;24282;48.400;10.808;2022-10-01T01:16:18;7.40;85.40
38514;DHT22;24282;48.400;10.808;2022-10-01T01:19:07;7.40;85.20
38514;DHT22;24282;48.400;10.808;2022-10-01T01:21:44;7.40;85.20
38514;DHT22;24282;48.400;10.808;2022-10-01T01:35:07;7.30;85.10
38514;DHT22;24282;48.400;10.808;2022-10-01T01:37:39;7.20;85.00
38514;DHT22;24282;48.400;10.808;2022-10-01T01:40:07;7.20;84.90
38514;DHT22;24282;48.400;10.808;2022-10-01T01:42:36;7.20;84.70
38514;DHT22;24282;48.400;10.808;2022-10-01T01:45:07;7.20;84.70
38514;DHT22;24282;48.400;10.808;2022-10-01T01:47:36;7.20;84.70
38514;DHT22;24282;48.400;10.808;2022-10-01T01:50:04;7.20;84.60
38514;DHT22;24282;48.400;10.808;2022-10-01T01:52:33;7.20;84.60
38514;DHT22;24282;48.400;10.808;2022-10-01T01:54:58;7.20;84.60
38514;DHT22;24282;48.400;10.808;2022-10-01T01:57:26;7.20;84.60
38514;DHT22;24282;48.400;10.808;2022-10-01T01:59:53;7.20;84.60
38514;DHT22;24282;48.400;10.808;2022-10-01T02:02:23;7.10;84.70
38514;DHT22;24282;48.400;10.808;2022-10-01T02:04:51;7.10;84.80
38514;DHT22;24282;48.400;10.808;2022-10-01T02:10:31;7.10;85.10
38514;DHT22;24282;48.400;10.808;2022-10-01T02:15:51;7.10;85.20
38514;DHT22;24282;48.400;10.808;2022-10-01T02:18:47;7.10;85.30
38514;DHT22;24282;48.400;10.808;2022-10-01T02:21:26;7.10;85.30
38514;DHT22;24282;48.400;10.808;2022-10-01T02:26:58;7.10;85.40
38514;DHT22;24282;48.400;10.808;2022-10-01T02:29:27;7.10;85.50
38514;DHT22;24282;48.400;10.808;2022-10-01T02:31:54;7.10;85.60
38514;DHT22;24282;48.400;10.808;2022-10-01T02:34:23;7.10;85.60
38514;DHT22;24282;48.400;10.808;2022-10-01T02:36:50;7.10;85.50
38514;DHT22;24282;48.400;10.808;2022-10-01T02:39:19;7.10;85.40
38514;DHT22;24282;48.400;10.808;2022-10-01T02:41:48;7.10;85.40
38514;DHT22;24282;48.400;10.808;2022-10-01T02:44:18;7.10;85.50
38514;DHT22;24282;48.400;10.808;2022-10-01T02:49:14;7.10;85.10
38514;DHT22;24282;48.400;10.808;2022-10-01T02:54:45;7.00;85.00
38514;DHT22;24282;48.400;10.808;2022-10-01T02:57:17;7.00;85.10
38514;DHT22;24282;48.400;10.808;2022-10-01T02:59:54;7.00;85.30
38514;DHT22;24282;48.400;10.808;2022-10-01T03:02:22;6.90;85.30
38514;DHT22;24282;48.400;10.808;2022-10-01T03:04:48;6.90;85.10
38514;DHT22;24282;48.400;10.808;2022-10-01T03:07:15;6.90;85.10
38514;DHT22;24282;48.400;10.808;2022-10-01T03:09:41;6.90;85.30
38514;DHT22;24282;48.400;10.808;2022-10-01T03:12:07;6.90;85.50
38514;DHT22;24282;48.400;10.808;2022-10-01T03:14:33;6.90;85.50
38514;DHT22;24282;48.400;10.808;2022-10-01T03:16:59;6.90;85.40
38514;DHT22;24282;48.400;10.808;2022-10-01T03:19:24;6.90;85.30
38514;DHT22;24282;48.400;10.808;2022-10-01T03:21:50;6.80;85.20
38514;DHT22;24282;48.400;10.808;2022-10-01T03:24:16;6.80;85.10
38514;DHT22;24282;48.400;10.808;2022-10-01T03:26:41;6.80;85.00
38514;DHT22;24282;48.400;10.808;2022-10-01T03:29:07;6.80;85.10
38514;DHT22;24282;48.400;10.808;2022-10-01T03:31:34;6.80;84.90
38514;DHT22;24282;48.400;10.808;2022-10-01T03:33:59;6.80;84.90
38514;DHT22;24282;48.400;10.808;2022-10-01T03:36:26;6.70;84.90
38514;DHT22;24282;48.400;10.808;2022-10-01T03:38:52;6.70;85.10
38514;DHT22;24282;48.400;10.808;2022-10-01T03:41:18;6.70;85.10
38514;DHT22;24282;48.400;10.808;2022-10-01T03:43:43;6.70;85.10
38514;DHT22;24282;48.400;10.808;2022-10-01T03:46:09;6.70;85.00
38514;DHT22;24282;48.400;10.808;2022-10-01T03:48:36;6.70;84.90
38514;DHT22;24282;48.400;10.808;2022-10-01T03:51:02;6.60;84.90
38514;DHT22;24282;48.400;10.808;2022-10-01T03:53:28;6.60;85.00
38514;DHT22;24282;48.400;10.808;2022-10-01T03:55:56;6.60;85.20
38514;DHT22;24282;48.400;10.808;2022-10-01T03:58:22;6.60;85.30
38514;DHT22;24282;48.400;10.808;2022-10-01T04:00:48;6.60;85.30
38514;DHT22;24282;48.400;10.808;2022-10-01T04:03:15;6.60;85.20
38514;DHT22;24282;48.400;10.808;2022-10-01T04:05:42;6.60;84.90
38514;DHT22;24282;48.400;10.808;2022-10-01T04:08:08;6.60;85.10
38514;DHT22;24282;48.400;10.808;2022-10-01T04:10:34;6.60;85.10
38514;DHT22;24282;48.400;10.808;2022-10-01T04:12:59;6.50;85.10
38514;DHT22;24282;48.400;10.808;2022-10-01T04:15:25;6.50;85.20
38514;DHT22;24282;48.400;10.808;2022-10-01T04:17:51;6.50;85.40
38514;DHT22;24282;48.400;10.808;2022-10-01T04:20:17;6.50;85.50
38514;DHT22;24282;48.400;10.808;2022-10-01T04:22:42;6.50;85.80
38514;DHT22;24282;48.400;10.808;2022-10-01T04:25:09;6.50;85.80
38514;DHT22;24282;48.400;10.808;2022-10-01T04:27:54;6.60;85.70
38514;DHT22;24282;48.400;10.808;2022-10-01T04:30:20;6.50;85.80
38514;DHT22;24282;48.400;10.808;2022-10-01T04:32:46;6.60;85.80
38514;DHT22;24282;48.400;10.808;2022-10-01T04:35:12;6.50;86.00
38514;DHT22;24282;48.400;10.808;2022-10-01T04:37:37;6.50;86.10
38514;DHT22;24282;48.400;10.808;2022-10-01T04:40:04;6.60;86.30
38514;DHT22;24282;48.400;10.808;2022-10-01T04:42:30;6.60;86.40
38514;DHT22;24282;48.400;10.808;2022-10-01T04:44:56;6.60;86.40
38514;DHT22;24282;48.400;10.808;2022-10-01T04:47:22;6.70;86.60
38514;DHT22;24282;48.400;10.808;2022-10-01T04:49:48;6.70;86.70
38514;DHT22;24282;48.400;10.808;2022-10-01T04:52:14;6.70;87.00
38514;DHT22;24282;48.400;10.808;2022-10-01T04:54:40;6.70;87.10
38514;DHT22;24282;48.400;10.808;2022-10-01T04:57:05;6.70;87.20
38514;DHT22;24282;48.400;10.808;2022-10-01T04:59:32;6.80;87.40
38514;DHT22;24282;48.400;10.808;2022-10-01T05:01:58;6.80;87.60
38514;DHT22;24282;48.400;10.808;2022-10-01T05:04:24;6.80;87.70
38514;DHT22;24282;48.400;10.808;2022-10-01T05:06:51;6.90;87.90
38514;DHT22;24282;48.400;10.808;2022-10-01T05:09:17;6.90;87.80
38514;DHT22;24282;48.400;10.808;2022-10-01T05:11:43;6.90;87.80
38514;DHT22;24282;48.400;10.808;2022-10-01T05:14:10;7.00;87.90
38514;DHT22;24282;48.400;10.808;2022-10-01T05:16:36;7.00;87.80
38514;DHT22;24282;48.400;10.808;2022-10-01T05:19:02;7.00;87.90
38514;DHT22;24282;48.400;10.808;2022-10-01T05:21:27;7.00;88.00
38514;DHT22;24282;48.400;10.808;2022-10-01T05:23:53;7.00;88.10
38514;DHT22;24282;48.400;10.808;2022-10-01T05:26:19;7.10;88.10
38514;DHT22;24282;48.400;10.808;2022-10-01T05:28:45;7.10;88.30
38514;DHT22;24282;48.400;10.808;2022-10-01T05:31:11;7.20;88.40
38514;DHT22;24282;48.400;10.808;2022-10-01T05:33:38;7.20;88.50
38514;DHT22;24282;48.400;10.808;2022-10-01T05:36:05;7.20;88.60
38514;DHT22;24282;48.400;10.808;2022-10-01T05:38:32;7.30;88.60
38514;DHT22;24282;48.400;10.808;2022-10-01T05:41:03;7.30;88.70
38514;DHT22;24282;48.400;10.808;2022-10-01T05:43:29;7.40;88.80
38514;DHT22;24282;48.400;10.808;2022-10-01T05:45:59;7.40;88.80
38514;DHT22;24282;48.400;10.808;2022-10-01T05:48:25;7.40;88.80
38514;DHT22;24282;48.400;10.808;2022-10-01T05:50:51;7.40;88.80
38514;DHT22;24282;48.400;10.808;2022-10-01T05:53:19;7.40;88.90
38514;DHT22;24282;48.400;10.808;2022-10-01T05:55:45;7.40;88.90
38514;DHT22;24282;48.400;10.808;2022-10-01T05:58:12;7.50;88.90
38514;DHT22;24282;48.400;10.808;2022-10-01T06:00:40;7.50;88.90
38514;DHT22;24282;48.400;10.808;2022-10-01T06:03:07;7.50;88.90
38514;DHT22;24282;48.400;10.808;2022-10-01T06:05:34;7.50;89.00
38514;DHT22;24282;48.400;10.808;2022-10-01T06:08:03;7.50;89.00
38514;DHT22;24282;48.400;10.808;2022-10-01T06:10:29;7.60;89.00
38514;DHT22;24282;48.400;10.808;2022-10-01T06:12:59;7.60;89.00
38514;DHT22;24282;48.400;10.808;2022-10-01T06:15:32;7.60;89.10
38514;DHT22;24282;48.400;10.808;2022-10-01T06:18:03;7.70;89.20
38514;DHT22;24282;48.400;10.808;2022-10-01T06:20:29;7.70;89.30
38514;DHT22;24282;48.400;10.808;2022-10-01T06:22:56;7.70;89.40
38514;DHT22;24282;48.400;10.808;2022-10-01T06:25:22;7.70;89.40
38514;DHT22;24282;48.400;10.808;2022-10-01T06:27:52;7.80;89.50
38514;DHT22;24282;48.400;10.808;2022-10-01T06:30:21;7.80;89.50
38514;DHT22;24282;48.400;10.808;2022-10-01T06:32:47;7.90;89.60
38514;DHT22;24282;48.400;10.808;2022-10-01T06:35:13;7.90;89.70
38514;DHT22;24282;48.400;10.808;2022-10-01T06:37:38;7.90;89.80
38514;DHT22;24282;48.400;10.808;2022-10-01T06:40:05;8.00;89.90
38514;DHT22;24282;48.400;10.808;2022-10-01T06:42:31;8.00;90.00
38514;DHT22;24282;48.400;10.808;2022-10-01T06:44:57;8.00;90.10
38514;DHT22;24282;48.400;10.808;2022-10-01T06:47:23;8.10;90.10
38514;DHT22;24282;48.400;10.808;2022-10-01T06:49:49;8.10;90.20
38514;DHT22;24282;48.400;10.808;2022-10-01T06:52:14;8.20;90.20
38514;DHT22;24282;48.400;10.808;2022-10-01T06:54:58;8.20;90.20
38514;DHT22;24282;48.400;10.808;2022-10-01T06:57:27;8.30;90.30
38514;DHT22;24282;48.400;10.808;2022-10-01T06:59:52;8.30;90.40
38514;DHT22;24282;48.400;10.808;2022-10-01T07:02:26;8.40;90.40
38514;DHT22;24282;48.400;10.808;2022-10-01T07:04:55;8.40;90.30
38514;DHT22;24282;48.400;10.808;2022-10-01T07:07:32;8.40;90.30
38514;DHT22;24282;48.400;10.808;2022-10-01T07:09:59;8.50;90.30
38514;DHT22;24282;48.400;10.808;2022-10-01T07:12:25;8.50;90.20
38514;DHT22;24282;48.400;10.808;2022-10-01T07:14:52;8.60;90.30
38514;DHT22;24282;48.400;10.808;2022-10-01T07:17:18;8.60;90.30
38514;DHT22;24282;48.400;10.808;2022-10-01T07:19:44;8.60;90.30
38514;DHT22;24282;48.400;10.808;2022-10-01T07:22:09;8.70;90.30
38514;DHT22;24282;48.400;10.808;2022-10-01T07:24:35;8.70;90.30
38514;DHT22;24282;48.400;10.808;2022-10-01T07:27:01;8.80;90.40
38514;DHT22;24282;48.400;10.808;2022-10-01T07:29:27;8.80;90.50
38514;DHT22;24282;48.400;10.808;2022-10-01T07:31:57;8.80;90.60
38514;DHT22;24282;48.400;10.808;2022-10-01T07:34:25;8.90;90.80
38514;DHT22;24282;48.400;10.808;2022-10-01T07:36:51;8.90;90.80
38514;DHT22;24282;48.400;10.808;2022-10-01T07:39:16;8.90;90.90
38514;DHT22;24282;48.400;10.808;2022-10-01T07:41:42;9.00;91.00
38514;DHT22;24282;48.400;10.808;2022-10-01T07:44:08;9.00;91.00
38514;DHT22;24282;48.400;10.808;2022-10-01T07:46:39;9.00;91.00
38514;DHT22;24282;48.400;10.808;2022-10-01T07:49:05;9.10;91.00
38514;DHT22;24282;48.400;10.808;2022-10-01T07:51:31;9.20;90.80
38514;DHT22;24282;48.400;10.808;2022-10-01T07:53:57;9.20;90.60
38514;DHT22;24282;48.400;10.808;2022-10-01T07:56:24;9.30;90.50
38514;DHT22;24282;48.400;10.808;2022-10-01T07:58:58;9.30;90.20
38514;DHT22;24282;48.400;10.808;2022-10-01T08:01:24;9.40;90.10
38514;DHT22;24282;48.400;10.808;2022-10-01T08:03:50;9.40;89.90
38514;DHT22;24282;48.400;10.808;2022-10-01T08:06:18;9.40;89.70
38514;DHT22;24282;48.400;10.808;2022-10-01T08:08:44;9.40;89.50
38514;DHT22;24282;48.400;10.808;2022-10-01T08:11:11;9.40;89.40
38514;DHT22;24282;48.400;10.808;2022-10-01T08:13:39;9.50;89.40
38514;DHT22;24282;48.400;10.808;2022-10-01T08:16:06;9.50;89.30
38514;DHT22;24282;48.400;10.808;2022-10-01T08:18:34;9.50;89.30
38514;DHT22;24282;48.400;10.808;2022-10-01T08:21:00;9.60;89.40
38514;DHT22;24282;48.400;10.808;2022-10-01T08:23:27;9.70;89.40
38514;DHT22;24282;48.400;10.808;2022-10-01T08:26:03;9.70;89.30
38514;DHT22;24282;48.400;10.808;2022-10-01T08:28:29;9.70;89.20
38514;DHT22;24282;48.400;10.808;2022-10-01T08:30:55;9.80;89.00
38514;DHT22;24282;48.400;10.808;2022-10-01T08:33:22;9.90;88.70
38514;DHT22;24282;48.400;10.808;2022-10-01T08:35:48;10.00;87.80
38514;DHT22;24282;48.400;10.808;2022-10-01T08:38:14;10.00;87.30
38514;DHT22;24282;48.400;10.808;2022-10-01T08:40:44;10.00;87.20
38514;DHT22;24282;48.400;10.808;2022-10-01T08:43:28;10.10;87.30
38514;DHT22;24282;48.400;10.808;2022-10-01T08:45:56;10.30;86.30
38514;DHT22;24282;48.400;10.808;2022-10-01T08:51:42;10.40;85.60
38514;DHT22;24282;48.400;10.808;2022-10-01T08:56:42;10.50;86.40
38514;DHT22;24282;48.400;10.808;2022-10-01T09:01:45;10.50;86.50
38514;DHT22;24282;48.400;10.808;2022-10-01T09:04:10;10.60;85.50
38514;DHT22;24282;48.400;10.808;2022-10-01T09:06:36;10.60;85.80
38514;DHT22;24282;48.400;10.808;2022-10-01T09:14:58;10.60;86.70
38514;DHT22;24282;48.400;10.808;2022-10-01T09:20:25;10.60;86.90
38514;DHT22;24282;48.400;10.808;2022-10-01T09:25:25;10.60;87.30
38514;DHT22;24282;48.400;10.808;2022-10-01T09:28:13;10.60;87.30
38514;DHT22;24282;48.400;10.808;2022-10-01T09:30:42;10.60;87.50
38514;DHT22;24282;48.400;10.808;2022-10-01T09:33:18;10.60;87.20
38514;DHT22;24282;48.400;10.808;2022-10-01T09:40:50;10.50;87.10
38514;DHT22;24282;48.400;10.808;2022-10-01T09:43:17;10.50;87.20
38514;DHT22;24282;48.400;10.808;2022-10-01T09:45:48;10.50;87.10
38514;DHT22;24282;48.400;10.808;2022-10-01T09:48:26;10.40;87.30
38514;DHT22;24282;48.400;10.808;2022-10-01T09:50:56;10.30;87.70
38514;DHT22;24282;48.400;10.808;2022-10-01T09:53:51;10.30;87.80
38514;DHT22;24282;48.400;10.808;2022-10-01T09:56:36;10.40;87.50
38514;DHT22;24282;48.400;10.808;2022-10-01T09:59:09;10.30;87.50
38514;DHT22;24282;48.400;10.808;2022-10-01T10:01:44;10.30;87.70
38514;DHT22;24282;48.400;10.808;2022-10-01T10:04:11;10.30;88.00
38514;DHT22;24282;48.400;10.808;2022-10-01T10:06:42;10.30;88.00
38514;DHT22;24282;48.400;10.808;2022-10-01T10:09:14;10.30;88.10
38514;DHT22;24282;48.400;10.808;2022-10-01T10:11:40;10.30;88.00
38514;DHT22;24282;48.400;10.808;2022-10-01T10:14:16;10.30;87.60
38514;DHT22;24282;48.400;10.808;2022-10-01T10:16:44;10.30;87.50
38514;DHT22;24282;48.400;10.808;2022-10-01T10:19:20;10.30;87.70
38514;DHT22;24282;48.400;10.808;2022-10-01T10:21:56;10.30;88.00
38514;DHT22;24282;48.400;10.808;2022-10-01T10:24:33;10.30;88.40
38514;DHT22;24282;48.400;10.808;2022-10-01T10:27:00;10.30;88.10
38514;DHT22;24282;48.400;10.808;2022-10-01T10:29:34;10.30;88.30
38514;DHT22;24282;48.400;10.808;2022-10-01T10:32:30;10.30;88.40
38514;DHT22;24282;48.400;10.808;2022-10-01T10:34:59;10.40;88.70
38514;DHT22;24282;48.400;10.808;2022-10-01T10:37:36;10.40;88.40
38514;DHT22;24282;48.400;10.808;2022-10-01T10:40:04;10.40;87.80
38514;DHT22;24282;48.400;10.808;2022-10-01T10:42:31;10.40;88.00
38514;DHT22;24282;48.400;10.808;2022-10-01T10:45:01;10.40;88.00
38514;DHT22;24282;48.400;10.808;2022-10-01T10:47:28;10.40;88.10
38514;DHT22;24282;48.400;10.808;2022-10-01T10:50:02;10.40;87.40
38514;DHT22;24282;48.400;10.808;2022-10-01T10:52:33;10.40;87.80
38514;DHT22;24282;48.400;10.808;2022-10-01T10:57:45;10.40;87.80
38514;DHT22;24282;48.400;10.808;2022-10-01T11:00:13;10.40;87.90
38514;DHT22;24282;48.400;10.808;2022-10-01T11:02:49;10.40;87.90
38514;DHT22;24282;48.400;10.808;2022-10-01T11:05:25;10.40;87.90
38514;DHT22;24282;48.400;10.808;2022-10-01T11:07:57;10.40;88.00
38514;DHT22;24282;48.400;10.808;2022-10-01T11:16:27;10.50;87.30
38514;DHT22;24282;48.400;10.808;2022-10-01T11:32:28;10.20;88.60
38514;DHT22;24282;48.400;10.808;2022-10-01T11:38:45;10.30;88.80
38514;DHT22;24282;48.400;10.808;2022-10-01T11:43:43;10.20;89.20
38514;DHT22;24282;48.400;10.808;2022-10-01T11:46:21;10.20;89.30
38514;DHT22;24282;48.400;10.808;2022-10-01T11:48:56;10.20;89.40
38514;DHT22;24282;48.400;10.808;2022-10-01T11:51:33;10.20;89.30
38514;DHT22;24282;48.400;10.808;2022-10-01T11:54:07;10.30;89.10
38514;DHT22;24282;48.400;10.808;2022-10-01T11:56:41;10.30;88.80
38514;DHT22;24282;48.400;10.808;2022-10-01T11:59:54;10.30;89.10
38514;DHT22;24282;48.400;10.808;2022-10-01T12:02:30;10.30;89.40
38514;DHT22;24282;48.400;10.808;2022-10-01T12:05:19;10.30;89.30
38514;DHT22;24282;48.400;10.808;2022-10-01T12:08:03;10.30;89.50
38514;DHT22;24282;48.400;10.808;2022-10-01T12:16:08;10.40;89.30
38514;DHT22;24282;48.400;10.808;2022-10-01T12:24:52;10.40;89.70
38514;DHT22;24282;48.400;10.808;2022-10-01T12:27:40;10.40;89.60
38514;DHT22;24282;48.400;10.808;2022-10-01T12:30:18;10.50;89.30
38514;DHT22;24282;48.400;10.808;2022-10-01T12:40:49;10.60;89.40
38514;DHT22;24282;48.400;10.808;2022-10-01T12:48:42;10.50;89.00
38514;DHT22;24282;48.400;10.808;2022-10-01T12:51:21;10.60;89.10
38514;DHT22;24282;48.400;10.808;2022-10-01T13:10:34;10.70;89.00
38514;DHT22;24282;48.400;10.808;2022-10-01T13:18:41;10.80;89.00
38514;DHT22;24282;48.400;10.808;2022-10-01T13:21:46;10.80;88.80
38514;DHT22;24282;48.400;10.808;2022-10-01T13:24:24;10.90;88.40
38514;DHT22;24282;48.400;10.808;2022-10-01T13:30:02;10.90;88.20
38514;DHT22;24282;48.400;10.808;2022-10-01T13:32:36;10.90;88.50
38514;DHT22;24282;48.400;10.808;2022-10-01T13:35:29;10.90;88.20
38514;DHT22;24282;48.400;10.808;2022-10-01T13:37:55;10.90;88.60
38514;DHT22;24282;48.400;10.808;2022-10-01T13:40:28;11.00;88.50
38514;DHT22;24282;48.400;10.808;2022-10-01T13:45:53;11.10;87.90
38514;DHT22;24282;48.400;10.808;2022-10-01T13:48:27;11.00;88.00
38514;DHT22;24282;48.400;10.808;2022-10-01T13:51:09;11.10;87.30
38514;DHT22;24282;48.400;10.808;2022-10-01T13:53:45;11.10;87.60
38514;DHT22;24282;48.400;10.808;2022-10-01T13:56:34;11.10;87.50
38514;DHT22;24282;48.400;10.808;2022-10-01T13:59:56;11.20;87.30
38514;DHT22;24282;48.400;10.808;2022-10-01T14:01:48;11.20;87.40
38514;DHT22;24282;48.400;10.808;2022-10-01T14:06:49;11.10;87.20
38514;DHT22;24282;48.400;10.808;2022-10-01T14:09:56;11.30;86.90
38514;DHT22;24282;48.400;10.808;2022-10-01T14:12:30;11.20;87.20
38514;DHT22;24282;48.400;10.808;2022-10-01T14:15:21;11.20;87.60
38514;DHT22;24282;48.400;10.808;2022-10-01T14:18:15;11.20;87.60
38514;DHT22;24282;48.400;10.808;2022-10-01T14:29:24;11.50;87.40
38514;DHT22;24282;48.400;10.808;2022-10-01T14:37:37;11.50;86.90
38514;DHT22;24282;48.400;10.808;2022-10-01T14:42:38;11.50;87.10
38514;DHT22;24282;48.400;10.808;2022-10-01T14:45:15;11.60;86.90
38514;DHT22;24282;48.400;10.808;2022-10-01T14:47:41;11.60;86.60
38514;DHT22;24282;48.400;10.808;2022-10-01T14:50:13;11.70;86.60
38514;DHT22;24282;48.400;10.808;2022-10-01T14:52:46;11.60;86.90
38514;DHT22;24282;48.400;10.808;2022-10-01T14:55:13;11.70;86.40
38514;DHT22;24282;48.400;10.808;2022-10-01T14:57:44;11.70;86.20
38514;DHT22;24282;48.400;10.808;2022-10-01T15:02:45;11.60;86.50
38514;DHT22;24282;48.400;10.808;2022-10-01T15:05:30;11.60;86.70
38514;DHT22;24282;48.400;10.808;2022-10-01T15:07:56;11.60;86.20
38514;DHT22;24282;48.400;10.808;2022-10-01T15:10:26;11.60;86.00
38514;DHT22;24282;48.400;10.808;2022-10-01T15:12:53;11.60;86.10
38514;DHT22;24282;48.400;10.808;2022-10-01T15:15:33;11.70;85.70
38514;DHT22;24282;48.400;10.808;2022-10-01T15:18:04;11.70;85.70
38514;DHT22;24282;48.400;10.808;2022-10-01T15:20:30;11.70;85.70
38514;DHT22;24282;48.400;10.808;2022-10-01T15:22:56;11.70;85.30
38514;DHT22;24282;48.400;10.808;2022-10-01T15:25:25;11.60;85.60
38514;DHT22;24282;48.400;10.808;2022-10-01T15:27:52;11.70;85.80
38514;DHT22;24282;48.400;10.808;2022-10-01T15:30:19;11.60;85.60
38514;DHT22;24282;48.400;10.808;2022-10-01T15:32:46;11.50;85.60
38514;DHT22;24282;48.400;10.808;2022-10-01T15:35:14;11.60;85.70
38514;DHT22;24282;48.400;10.808;2022-10-01T15:37:42;11.60;85.60
38514;DHT22;24282;48.400;10.808;2022-10-01T15:40:29;11.60;85.70
38514;DHT22;24282;48.400;10.808;2022-10-01T15:43:24;11.60;85.90
38514;DHT22;24282;48.400;10.808;2022-10-01T15:48:41;11.60;85.90
38514;DHT22;24282;48.400;10.808;2022-10-01T15:51:26;11.60;85.90
38514;DHT22;24282;48.400;10.808;2022-10-01T15:54:00;11.50;85.90
38514;DHT22;24282;48.400;10.808;2022-10-01T15:56:29;11.50;85.80
38514;DHT22;24282;48.400;10.808;2022-10-01T15:59:09;11.60;85.90
38514;DHT22;24282;48.400;10.808;2022-10-01T16:01:39;11.50;85.80
38514;DHT22;24282;48.400;10.808;2022-10-01T16:04:08;11.50;86.00
38514;DHT22;24282;48.400;10.808;2022-10-01T16:06:36;11.50;86.20
38514;DHT22;24282;48.400;10.808;2022-10-01T16:14:34;11.60;85.90
38514;DHT22;24282;48.400;10.808;2022-10-01T16:19:50;11.70;85.70
38514;DHT22;24282;48.400;10.808;2022-10-01T16:27:28;11.50;86.40
38514;DHT22;24282;48.400;10.808;2022-10-01T16:30:01;11.60;86.40
38514;DHT22;24282;48.400;10.808;2022-10-01T16:32:27;11.60;86.40
38514;DHT22;24282;48.400;10.808;2022-10-01T16:37:38;11.60;86.40
38514;DHT22;24282;48.400;10.808;2022-10-01T16:40:04;11.60;86.60
38514;DHT22;24282;48.400;10.808;2022-10-01T16:42:30;11.60;86.90
38514;DHT22;24282;48.400;10.808;2022-10-01T16:44:57;11.70;86.70
38514;DHT22;24282;48.400;10.808;2022-10-01T16:47:23;11.60;86.80
38514;DHT22;24282;48.400;10.808;2022-10-01T16:49:50;11.60;86.90
38514;DHT22;24282;48.400;10.808;2022-10-01T16:52:17;11.60;87.00
38514;DHT22;24282;48.400;10.808;2022-10-01T16:54:43;11.70;87.00
38514;DHT22;24282;48.400;10.808;2022-10-01T16:57:09;11.70;87.00
38514;DHT22;24282;48.400;10.808;2022-10-01T16:59:35;11.60;86.90
38514;DHT22;24282;48.400;10.808;2022-10-01T17:02:01;11.70;86.90
38514;DHT22;24282;48.400;10.808;2022-10-01T17:04:27;11.70;87.00
38514;DHT22;24282;48.400;10.808;2022-10-01T17:06:57;11.70;87.00
38514;DHT22;24282;48.400;10.808;2022-10-01T17:09:23;11.60;87.20
38514;DHT22;24282;48.400;10.808;2022-10-01T17:11:49;11.60;87.30
38514;DHT22;24282;48.400;10.808;2022-10-01T17:14:17;11.60;87.40
38514;DHT22;24282;48.400;10.808;2022-10-01T17:16:43;11.70;87.00
38514;DHT22;24282;48.400;10.808;2022-10-01T17:19:10;11.70;87.10
38514;DHT22;24282;48.400;10.808;2022-10-01T17:21:37;11.70;87.20
38514;DHT22;24282;48.400;10.808;2022-10-01T17:24:03;11.70;87.40
38514;DHT22;24282;48.400;10.808;2022-10-01T17:26:29;11.60;87.50
38514;DHT22;24282;48.400;10.808;2022-10-01T17:28:55;11.70;87.20
38514;DHT22;24282;48.400;10.808;2022-10-01T17:31:20;11.70;87.20
38514;DHT22;24282;48.400;10.808;2022-10-01T17:33:46;11.70;87.10
38514;DHT22;24282;48.400;10.808;2022-10-01T17:36:12;11.70;87.20
38514;DHT22;24282;48.400;10.808;2022-10-01T17:38:38;11.70;87.40
38514;DHT22;24282;48.400;10.808;2022-10-01T17:41:05;11.70;87.20
38514;DHT22;24282;48.400;10.808;2022-10-01T17:43:31;11.60;87.40
38514;DHT22;24282;48.400;10.808;2022-10-01T17:45:59;11.70;87.50
38514;DHT22;24282;48.400;10.808;2022-10-01T17:48:26;11.70;87.20
38514;DHT22;24282;48.400;10.808;2022-10-01T17:51:06;11.70;87.20
38514;DHT22;24282;48.400;10.808;2022-10-01T17:53:33;11.70;87.00
38514;DHT22;24282;48.400;10.808;2022-10-01T17:56:07;11.70;87.10
38514;DHT22;24282;48.400;10.808;2022-10-01T17:58:34;11.70;87.20
38514;DHT22;24282;48.400;10.808;2022-10-01T18:01:00;11.70;87.30
38514;DHT22;24282;48.400;10.808;2022-10-01T18:03:26;11.60;87.50
38514;DHT22;24282;48.400;10.808;2022-10-01T18:05:59;11.60;87.60
38514;DHT22;24282;48.400;10.808;2022-10-01T18:08:27;11.70;87.50
38514;DHT22;24282;48.400;10.808;2022-10-01T18:11:04;11.70;87.30
38514;DHT22;24282;48.400;10.808;2022-10-01T18:13:31;11.70;87.40
38514;DHT22;24282;48.400;10.808;2022-10-01T18:16:06;11.60;87.50
38514;DHT22;24282;48.400;10.808;2022-10-01T18:18:32;11.60;87.50
38514;DHT22;24282;48.400;10.808;2022-10-01T18:21:06;11.70;87.40
38514;DHT22;24282;48.400;10.808;2022-10-01T18:23:32;11.70;87.60
38514;DHT22;24282;48.400;10.808;2022-10-01T18:25:58;11.60;87.70
38514;DHT22;24282;48.400;10.808;2022-10-01T18:28:25;11.70;87.50
38514;DHT22;24282;48.400;10.808;2022-10-01T18:33:38;11.70;87.50
38514;DHT22;24282;48.400;10.808;2022-10-01T18:39:06;11.70;87.30
38514;DHT22;24282;48.400;10.808;2022-10-01T18:41:36;11.70;87.50
38514;DHT22;24282;48.400;10.808;2022-10-01T18:44:03;11.70;87.60